• Join FlightAware (Why Join?)
  • Login
  • US Flag 
05:53AM EDT


 

Airport Tracker/Info


-or-


 

Live Flight TrackerFlight Track Log ✈ BAW243 ✈ 10-May-2013 ✈ EGLL / LHR - MMMX / MEX

Flight Track Log - Related Links

Times and Time Zones

All times are in EDT time to prevent confusion due to time zone crossing. See the BAW243 flight status page for this flight to view local times or setup timezone preferences in your user account.

Time Position Orientation Groundspeed Altitude Reporting Facility
EDT Latitude Longitude Course Direction KTS MPH feet Rate Location/Type
09:35AM 51.4650 -0.4950 270° West 165 190 700  Level FlightAware
09:36AM 51.4650 -0.5100 270° West 168 193 1,100 1,800 Climbing FlightAware
09:36AM 51.4650 -0.5426 270° West 178 205 1,700 1,560 Climbing FlightAware ADS-B
09:36AM 51.4646 -0.5630 268° West 185 213 2,100 1,740 Climbing FlightAware ADS-B
09:36AM 51.4641 -0.5852 268° West 188 216 2,600 2,160 Climbing FlightAware ADS-B
09:37AM 51.4640 -0.5935 269° West 186 214 2,900 2,820 Climbing FlightAware ADS-B
09:37AM 51.4638 -0.6086 269° West 181 208 3,400 2,400 Climbing FlightAware ADS-B
09:37AM 51.4633 -0.6205 266° West 182 209 3,700 2,100 Climbing FlightAware ADS-B
09:37AM 51.4628 -0.6273 263° West 182 209 3,900 2,220 Climbing FlightAware ADS-B
09:37AM 51.4622 -0.6313 256° West 181 208 4,000 1,620 Climbing FlightAware ADS-B
09:37AM 51.4608 -0.6418 258° West 182 209 4,200 1,260 Climbing FlightAware ADS-B
09:37AM 51.4573 -0.6617 254° West 192 221 4,500 780 Climbing FlightAware ADS-B
09:38AM 51.4556 -0.6732 257° West 204 235 4,500 420 Level FlightAware ADS-B
09:38AM 51.4546 -0.6823 260° West 212 244 4,600 900 Climbing FlightAware ADS-B
09:38AM 51.4538 -0.6934 263° West 218 251 4,700 1,080 Climbing FlightAware ADS-B
09:38AM 51.4538 -0.6998 270° West 222 255 4,800 840 Climbing FlightAware ADS-B
09:38AM 51.4540 -0.7049 274° West 225 259 4,800 960 Level FlightAware ADS-B
09:38AM 51.4544 -0.7098 278° West 226 260 4,900 1,980 Climbing FlightAware ADS-B
09:38AM 51.4559 -0.7248 279° West 232 267 5,200 1,680 Climbing FlightAware ADS-B
09:38AM 51.4590 -0.7527 280° West 246 283 5,600 1,320 Climbing FlightAware ADS-B
09:39AM 51.4627 -0.7806 282° West 262 302 5,900 1,020 Climbing FlightAware ADS-B
09:39AM 51.4655 -0.8056 280° West 267 307 6,100 420 Climbing FlightAware ADS-B
09:39AM 51.4686 -0.8307 281° West 264 304 6,100  Level FlightAware ADS-B
09:39AM 51.4724 -0.8617 281° West 267 307 6,100 1,080 Level FlightAware ADS-B
09:40AM 51.4765 -0.8948 281° West 269 310 6,700 1,620 Climbing FlightAware ADS-B
09:40AM 51.4802 -0.9260 281° West 267 307 7,000 540 Climbing FlightAware ADS-B
09:40AM 51.4839 -0.9554 281° West 269 310 7,000 600 Level FlightAware ADS-B
09:40AM 51.4872 -0.9830 281° West 273 314 7,300 1,860 Climbing FlightAware ADS-B
09:41AM 51.4908 -1.0130 281° West 275 316 7,900 2,760 Climbing FlightAware ADS-B
09:41AM 51.4944 -1.0432 281° West 276 318 8,700 2,880 Climbing FlightAware ADS-B
09:41AM 51.4985 -1.0752 282° West 276 318 9,400 2,040 Climbing FlightAware ADS-B
09:41AM 51.5025 -1.1074 281° West 277 319 9,800 1,140 Climbing FlightAware ADS-B
09:42AM 51.5064 -1.1377 282° West 279 321 10,000 780 Climbing FlightAware ADS-B
09:42AM 51.5144 -1.2013 281° West 293 337 10,400 -840 Climbing FlightAware ADS-B
09:42AM 51.5202 -1.2467 281° West 344 396 9,300 1,320 Descending FlightAware UK
09:43AM 51.5232 -1.2706 281° West 322 371 11,100 3,540 Climbing FlightAware ADS-B
09:43AM 51.5330 -1.3466 282° West 348 400 11,800 -120 Climbing FlightAware ADS-B
09:44AM 51.5409 -1.4097 282° West 402 463 11,000 1,920 Descending FlightAware UK
09:44AM 51.5436 -1.4271 282° West 363 418 12,800 4,440 Climbing FlightAware ADS-B
09:44AM 51.5550 -1.5120 282° West 371 427 13,900  Climbing FlightAware ADS-B
09:44AM 51.5603 -1.5532 282° West 408 470 12,800 1,920 Descending FlightAware UK
09:45AM 51.5663 -1.5970 282° West 382 440 14,900 3,960 Climbing FlightAware ADS-B
09:45AM 51.5782 -1.6867 282° West 391 450 16,000 480 Climbing FlightAware ADS-B
09:46AM 51.5873 -1.7559 282° West 428 493 15,400 2,400 Descending FlightAware UK
09:46AM 51.5898 -1.7727 282° West 397 457 17,200 5,340 Climbing FlightAware ADS-B
09:46AM 51.5973 -1.8368 281° West 401 461 17,900 2,100 Climbing FlightAware ADS-B
09:47AM 51.6047 -1.9287 277° West 405 466 19,100 240 Climbing FlightAware ADS-B
09:47AM 51.6088 -1.9859 277° West 446 513 18,100 1,920 Descending FlightAware UK
09:47AM 51.6117 -2.0220 277° West 411 473 20,100 1,980 Climbing FlightAware ADS-B
09:47AM 51.6159 -2.0766 277° West 450 518 19,100 1,560 Descending FlightAware UK
09:48AM 51.6190 -2.1140 277° West 416 479 21,000 5,280 Climbing FlightAware
09:48AM 51.6225 -2.1567 278° West 418 481 21,400 -1,680 Climbing FlightAware ADS-B
09:48AM 51.6266 -2.2057 278° West 456 525 20,300 1,740 Descending FlightAware UK
09:48AM 51.6303 -2.2532 278° West 425 489 22,300 1,620 Climbing FlightAware ADS-B
09:49AM 51.6356 -2.3178 278° West 466 536 21,300 1,620 Descending FlightAware UK
09:49AM 51.6410 -2.3796 278° West 431 496 23,400 1,680 Climbing FlightAware ADS-B
09:49AM 51.6467 -2.4518 278° West 472 543 22,500 1,620 Descending FlightAware UK
09:50AM 51.6494 -2.4851 278° West 436 502 24,300 1,560 Climbing FlightAware ADS-B
09:50AM 51.6546 -2.5486 278° West 480 552 23,300 1,560 Descending FlightAware UK
09:50AM 51.6575 -2.6085 278° West 440 506 25,300 4,680 Climbing FlightAware ADS-B
09:50AM 51.6569 -2.6378 268° West 440 506 25,500 -1,920 Climbing FlightAware ADS-B
09:51AM 51.6546 -2.7049 268° West 484 557 24,400 1,320 Descending FlightAware UK
09:51AM 51.6525 -2.7562 268° West 445 512 26,300 1,140 Climbing FlightAware ADS-B
09:51AM 51.6501 -2.8237 268° West 488 562 25,100 -960 Descending FlightAware UK
09:52AM 51.6475 -2.9038 267° West 492 566 25,600 1,200 Climbing FlightAware UK
09:52AM 51.6449 -2.9849 267° West 496 571 26,100 4,980 Climbing FlightAware UK
09:52AM 51.6450 -2.9710 267° West 456 525 27,600 960 Climbing FlightAware
09:52AM 51.6428 -3.0468 267° West 500 575 26,400 -1,200 Descending FlightAware UK
09:53AM 51.6405 -3.1076 267° West 500 575 26,900 4,620 Climbing FlightAware UK
09:53AM 51.6400 -3.1270 267° West 459 528 28,500 1,380 Climbing FlightAware
09:53AM 51.6368 -3.2098 267° West 502 578 27,600 1,500 Descending FlightAware UK
09:54AM 51.6350 -3.2570 267° West 457 526 29,500 1,500 Climbing FlightAware
09:54AM 51.6324 -3.3322 267° West 500 575 28,500 -600 Descending FlightAware UK
09:54AM 51.6300 -3.4127 267° West 500 575 29,100 4,680 Climbing FlightAware UK
09:54AM 51.6300 -3.4190 267° West 453 521 30,700 1,500 Climbing FlightAware
09:55AM 51.6265 -3.5329 267° West 500 575 30,000 1,500 Descending FlightAware UK
09:55AM 51.6260 -3.5530 267° West 448 516 31,700 1,380 Climbing FlightAware
09:55AM 51.6185 -3.6310 267° West 494 568 30,700 -1,080 Descending FlightAware UK
09:56AM 51.6120 -3.6892 260° West 494 568 31,000 6,000 Climbing FlightAware UK
09:56AM 51.6120 -3.6860 260° West 442 509 32,500 1,020 Climbing FlightAware
09:56AM 51.6056 -3.7469 260° West 496 571 31,300 -1,740 Descending FlightAware UK
09:56AM 51.5993 -3.8051 260° West 496 571 31,500 4,020 Climbing FlightAware UK
09:56AM 51.5970 -3.8250 260° West 442 509 33,200 960 Climbing FlightAware
09:57AM 51.5821 -3.9406 260° West 498 573 32,200 900 Descending FlightAware UK
09:57AM 51.5800 -3.9530 260° West 439 505 33,800 600 Climbing FlightAware
09:57AM 51.5695 -4.0354 260° West 498 573 32,500 240 Descending FlightAware UK
09:58AM 51.5620 -4.0970 260° West 438 504 34,000  Climbing FlightAware
09:58AM 51.5529 -4.1693 260° West 498 573 32,500 -2,460 Descending FlightAware UK
09:58AM 51.5458 -4.2266 259° West 494 568 32,500 4,260 Level FlightAware UK
09:58AM 51.5460 -4.2240 259° West 437 503 34,000 1,860 Climbing FlightAware
09:59AM 51.5280 -4.3700 259° West 438 504 34,000 -1,440 Level FlightAware
10:00AM 51.5198 -4.4363 259° West 492 566 32,500 -2,520 Descending FlightAware UK
10:00AM 51.5125 -4.4936 258° West 494 568 32,500 4,080 Level FlightAware UK
10:00AM 51.5120 -4.4940 258° West 438 504 34,000  Climbing FlightAware
10:00AM 51.5026 -4.5700 258° West 494 568 32,500 -2,400 Descending FlightAware UK
10:01AM 51.4950 -4.6274 258° West 496 571 32,500 4,500 Level FlightAware UK
10:01AM 51.4950 -4.6250 258° West 440 506 34,000  Climbing FlightAware
10:01AM 51.4874 -4.6848 258° West 496 571 32,500 -2,700 Descending FlightAware UK
10:01AM 51.4798 -4.7424 258° West 498 573 32,500 3,060 Level FlightAware UK
10:01AM 51.4760 -4.7660 258° West 442 509 34,000  Climbing FlightAware
10:02AM 51.4671 -4.8379 258° West 494 568 32,500 -2,460 Descending FlightAware UK
10:02AM 51.4595 -4.8957 258° West 496 571 32,500 4,260 Level FlightAware UK
10:02AM 51.4590 -4.8940 258° West 443 510 34,000  Climbing FlightAware
10:02AM 51.4518 -4.9535 258° West 498 573 32,500 -2,760 Descending FlightAware UK
10:03AM 51.4440 -5.0114 258° West 498 573 32,500 3,000 Level FlightAware UK
10:03AM 51.4390 -5.0450 258° West 446 513 34,000  Climbing FlightAware
10:03AM 51.4309 -5.1080 258° West 498 573 32,500 -2,520 Descending FlightAware UK
10:03AM 51.4230 -5.1661 258° West 500 575 32,500 4,080 Level FlightAware UK
10:03AM 51.4220 -5.1710 258° West 447 514 34,000  Climbing FlightAware
10:04AM 51.4125 -5.2438 258° West 502 578 32,500 -2,400 Descending FlightAware UK
10:04AM 51.4039 -5.3020 257° West 504 580 32,500 4,500 Level FlightAware UK
10:04AM 51.4040 -5.3000 257° West 447 514 34,000  Climbing FlightAware
10:04AM 51.3938 -5.3596 257° West 500 575 32,500 -2,700 Descending FlightAware UK
10:05AM 51.3834 -5.4170 254° West 502 578 32,500 3,060 Level FlightAware UK
10:05AM 51.3780 -5.4470 254° West 449 517 34,000  Climbing FlightAware
10:05AM 51.3654 -5.5122 254° West 500 575 32,500 -2,460 Descending FlightAware UK
10:05AM 51.3540 -5.5692 252° West 506 582 32,500 4,260 Level FlightAware UK
10:05AM 51.3530 -5.5730 252° West 450 518 34,000  Climbing FlightAware
10:06AM 51.3424 -5.6261 252° West 504 580 32,500 -2,760 Descending FlightAware UK
10:06AM 51.3308 -5.6829 252° West 504 580 32,500 3,600 Level FlightAware UK
10:06AM 51.3270 -5.7000 252° West 450 518 34,000  Climbing FlightAware
10:06AM 51.3151 -5.7585 252° West 508 585 32,500 -2,580 Descending FlightAware UK
10:07AM 51.3034 -5.8152 252° West 508 585 32,500 3,180 Level FlightAware UK
10:07AM 51.2990 -5.8380 252° West 446 513 34,000  Climbing FlightAware
10:07AM 51.2840 -5.9093 252° West 502 578 32,500 -2,400 Descending FlightAware UK
10:08AM 51.2729 -5.9649 252° West 506 582 32,500 4,500 Level FlightAware UK
10:08AM 51.2730 -5.9630 252° West 444 511 34,000  Climbing FlightAware
10:08AM 51.2615 -6.0208 252° West 504 580 32,500 -2,700 Descending FlightAware UK
10:08AM 51.2500 -6.0765 252° West 504 580 32,500 3,060 Level FlightAware UK
10:08AM 51.2450 -6.1030 252° West 441 507 34,000  Climbing FlightAware
10:09AM 51.2310 -6.1691 252° West 502 578 32,500 -2,460 Descending FlightAware UK
10:09AM 51.2196 -6.2246 252° West 500 575 32,500 4,260 Level FlightAware UK
10:09AM 51.2200 -6.2230 252° West 440 506 34,000  Climbing FlightAware
10:09AM 51.2081 -6.2801 252° West 498 573 32,500 -2,760 Descending FlightAware UK
10:10AM 51.1966 -6.3355 252° West 498 573 32,500 3,600 Level FlightAware UK
10:10AM 51.1930 -6.3530 252° West 441 507 34,000  Climbing FlightAware
10:10AM 51.1814 -6.4095 252° West 496 571 32,500 -2,580 Descending FlightAware UK
10:10AM 51.1701 -6.4652 252° West 498 573 32,500 3,180 Level FlightAware UK
10:10AM 51.1660 -6.4860 252° West 445 512 34,000  Climbing FlightAware
10:11AM 51.1511 -6.5584 252° West 500 575 32,500 -2,400 Descending FlightAware UK
10:11AM 51.1396 -6.6144 252° West 500 575 32,500 4,500 Level FlightAware UK
10:11AM 51.1390 -6.6130 252° West 446 513 34,000  Climbing FlightAware
10:11AM 51.1277 -6.6706 252° West 502 578 32,500 -2,700 Descending FlightAware UK
10:12AM 51.1158 -6.7267 251° West 502 578 32,500 3,060 Level FlightAware UK
10:12AM 51.1090 -6.7570 251° West 448 516 34,000  Climbing FlightAware
10:12AM 51.0958 -6.8203 251° West 502 578 32,500 -2,460 Descending FlightAware UK
10:12AM 51.0839 -6.8765 251° West 502 578 32,500 4,260 Level FlightAware UK
10:12AM 51.0840 -6.8750 251° West 448 516 34,000  Climbing FlightAware
10:13AM 51.0719 -6.9326 251° West 502 578 32,500 -2,760 Descending FlightAware UK
10:13AM 51.0600 -6.9887 251° West 500 575 32,500 3,600 Level FlightAware UK
10:13AM 51.0570 -7.0000 251° West 450 518 34,000  Climbing FlightAware
10:13AM 51.0444 -7.0637 251° West 504 580 32,500 -2,580 Descending FlightAware UK
10:14AM 51.0325 -7.1194 251° West 502 578 32,500 3,900 Level FlightAware UK
10:14AM 51.0360 -7.1010 251° West 451 519 34,000  Climbing FlightAware
10:14AM 51.0163 -7.1946 251° West 500 575 32,500 -2,460 Descending FlightAware UK
10:14AM 51.0041 -7.2511 251° West 502 578 32,500 3,420 Level FlightAware UK
10:15AM 51.0000 -7.2670 251° West 454 522 34,000  Climbing FlightAware
10:15AM 50.9877 -7.3267 251° West 502 578 32,500 -2,700 Descending FlightAware UK
10:15AM 50.9754 -7.3836 251° West 502 578 32,500 3,060 Level FlightAware UK
10:15AM 50.9690 -7.4060 251° West 457 526 34,000  Climbing FlightAware
10:16AM 50.9548 -7.4788 251° West 506 582 32,500 -2,460 Descending FlightAware UK
10:16AM 50.9424 -7.5362 251° West 508 585 32,500 4,260 Level FlightAware UK
10:16AM 50.9420 -7.5330 251° West 457 526 34,000  Climbing FlightAware
10:16AM 50.9296 -7.5936 251° West 510 587 32,500 -2,760 Descending FlightAware UK
10:17AM 50.9168 -7.6509 251° West 506 582 32,500 3,600 Level FlightAware UK
10:17AM 50.9140 -7.6600 251° West 458 527 34,000  Climbing FlightAware
10:17AM 50.8996 -7.7271 251° West 510 587 32,500  Descending FlightAware UK
10:17AM 50.8820 -7.8030 251° West 455 524 34,000 1,320 Climbing FlightAware
10:18AM 50.8540 -7.9280 251° West 454 522 34,000  Level FlightAware
10:19AM 50.8320 -8.0290 251° West 454 522 34,000 -1,740 Level FlightAware
10:19AM 50.8147 -8.1055 251° West 510 587 32,500 -2,580 Descending FlightAware UK
10:19AM 50.8020 -8.1620 250° West 506 582 32,500 1,860 Level FlightAware UK
10:20AM 50.7820 -8.2490 250° West 456 525 34,000  Climbing FlightAware
10:20AM 50.7682 -8.3116 250° West 510 587 32,500 -2,520 Descending FlightAware UK
10:20AM 50.7554 -8.3679 250° West 508 585 32,500 3,300 Level FlightAware UK
10:20AM 50.7510 -8.3860 250° West 456 525 34,000  Climbing FlightAware
10:21AM 50.7384 -8.4430 250° West 508 585 32,500 -2,760 Descending FlightAware UK
10:21AM 50.7256 -8.4992 250° West 508 585 32,500 3,600 Level FlightAware UK
10:21AM 50.7230 -8.5120 250° West 457 526 34,000  Climbing FlightAware
10:21AM 50.7085 -8.5743 250° West 506 582 32,500 -2,580 Descending FlightAware UK
10:22AM 50.6955 -8.6305 250° West 504 580 32,500 3,180 Level FlightAware UK
10:22AM 50.6940 -8.6370 250° West 454 522 34,000  Climbing FlightAware
10:22AM 50.6738 -8.7244 250° West 506 582 32,500  Descending FlightAware UK
10:22AM 50.6700 -8.7430 250° West 459 528 34,000  Climbing FlightAware
10:23AM 50.6520 -8.8184 250° West 506 582 32,500 -2,400 Descending FlightAware UK
10:23AM 50.6389 -8.8749 250° West 506 582 32,500 3,600 Level FlightAware UK
10:23AM 50.6390 -8.8750 250° West 459 528 34,000  Climbing FlightAware
10:23AM 50.6213 -8.9504 250° West 506 582 32,500 -2,580 Descending FlightAware UK
10:24AM 50.6080 -9.0072 250° West 506 582 32,500 2,700 Level FlightAware UK
10:24AM 50.6000 -9.0430 250° West 463 533 34,000 1,260 Climbing FlightAware
10:25AM 50.5570 -9.2230 249° West 464 534 34,000  Level FlightAware
10:25AM 50.5320 -9.3300 250° West 465 535 34,000  Level FlightAware
10:26AM 50.4870 -9.5160 249° West 464 534 34,000  Level FlightAware
10:27AM 50.4560 -9.6440 249° West 464 534 34,000  Level FlightAware
10:28AM 50.4160 -9.8110 249° West 464 534 34,000  Level FlightAware
10:29AM 50.3900 -9.9180 249° West 464 534 34,000  Level FlightAware
10:30AM 50.3570 -10.0520 249° West 464 534 34,000  Level FlightAware
10:30AM 50.3310 -10.1580 249° West 464 534 34,000  Level FlightAware
10:31AM 50.3050 -10.2650 249° West 464 534 34,000  Level FlightAware
10:32AM 50.2790 -10.3720 249° West 464 534 34,000  Level FlightAware
10:32AM 50.2140 -10.6270 248° West 458 527 34,000  Level FlightAware
10:33AM 50.1880 -10.7290 248° West 458 527 34,000  Level FlightAware
10:34AM 50.1610 -10.8340 248° West 458 527 34,000  Level FlightAware
10:34AM 50.1270 -10.9640 248° West 458 527 34,000  Level FlightAware
10:35AM 50.1000 -11.0680 248° West 458 527 34,000  Level FlightAware
10:36AM 50.0730 -11.1720 248° West 458 527 34,000  Level FlightAware
10:36AM 50.0460 -11.2760 248° West 458 527 34,000  Level FlightAware
10:37AM 50.0120 -11.4060 248° West 458 527 34,000  Level FlightAware
10:38AM 49.9850 -11.5100 248° West 458 527 34,000  Level FlightAware
10:39AM 49.9580 -11.6140 248° West 458 527 34,000  Level FlightAware
10:39AM 49.9310 -11.7180 248° West 458 527 34,000  Level FlightAware
10:40AM 49.9040 -11.8210 248° West 458 527 34,000  Level FlightAware
10:41AM 49.8710 -11.9510 249° West 458 527 34,000  Level FlightAware
10:41AM 49.8440 -12.0550 248° West 458 527 34,000  Level FlightAware
10:42AM 49.8170 -12.1580 248° West 458 527 34,000  Level FlightAware
10:45AM 49.8694 -12.5998 281° West  Level Estimated
10:46AM 49.8908 -12.7855 280° West  Level Estimated
10:47AM 49.9120 -12.9713 280° West  Level Estimated
10:48AM 49.9329 -13.1573 280° West  Level Estimated
10:49AM 49.9535 -13.3435 280° West  Level Estimated
10:50AM 49.9737 -13.5298 280° West  Level Estimated
10:51AM 49.9937 -13.7163 280° West  Level Estimated
10:52AM 50.0134 -13.9029 279° West  Level Estimated
10:53AM 50.0328 -14.0897 279° West  Level Estimated
10:54AM 50.0519 -14.2766 279° West  Level Estimated
10:55AM 50.0706 -14.4637 279° West  Level Estimated
10:56AM 50.0891 -14.6509 279° West  Level Estimated
10:57AM 50.1073 -14.8383 279° West  Level Estimated
10:58AM 50.1252 -15.0258 279° West  Level Estimated
10:59AM 50.1428 -15.2134 278° West  Level Estimated
11:00AM 50.1600 -15.4012 278° West  Level Estimated
11:01AM 50.1770 -15.5891 278° West  Level Estimated
11:02AM 50.1937 -15.7771 278° West  Level Estimated
11:03AM 50.2100 -15.9653 278° West  Level Estimated
11:04AM 50.2261 -16.1536 278° West  Level Estimated
11:05AM 50.2419 -16.3421 278° West  Level Estimated
11:06AM 50.2573 -16.5306 277° West  Level Estimated
11:07AM 50.2724 -16.7193 277° West  Level Estimated
11:08AM 50.2873 -16.9081 277° West  Level Estimated
11:09AM 50.3018 -17.0970 277° West  Level Estimated
11:10AM 50.3161 -17.2860 277° West  Level Estimated
11:11AM 50.3300 -17.4751 277° West  Level Estimated
11:12AM 50.3436 -17.6644 277° West  Level Estimated
11:13AM 50.3569 -17.8537 276° West  Level Estimated
11:14AM 50.3699 -18.0432 276° West  Level Estimated
11:15AM 50.3826 -18.2327 276° West  Level Estimated
11:16AM 50.3950 -18.4224 276° West  Level Estimated
11:17AM 50.4070 -18.6122 276° West  Level Estimated
11:18AM 50.4188 -18.8020 276° West  Level Estimated
11:19AM 50.4303 -18.9920 275° West  Level Estimated
11:20AM 50.4414 -19.1820 275° West  Level Estimated
11:21AM 50.4523 -19.3721 275° West  Level Estimated
11:22AM 50.4628 -19.5623 275° West  Level Estimated
11:23AM 50.4730 -19.7526 275° West  Level Estimated
11:24AM 50.4829 -19.9430 275° West  Level Estimated
11:25AM 50.4925 -20.1335 275° West  Level Estimated
11:26AM 50.5018 -20.3240 274° West  Level Estimated
11:27AM 50.5108 -20.5146 274° West  Level Estimated
11:28AM 50.5194 -20.7053 274° West  Level Estimated
11:29AM 50.5278 -20.8960 274° West  Level Estimated
11:30AM 50.5358 -21.0868 274° West  Level Estimated
11:31AM 50.5435 -21.2777 274° West  Level Estimated
11:32AM 50.5510 -21.4686 274° West  Level Estimated
11:32AM 48.0000 -20.0000 257° West 482 555 35,000  Level ETMS Enhanced Traffic Management System
11:33AM 50.5581 -21.6596 273° West  Level Estimated
11:34AM 50.5649 -21.8507 273° West  Level Estimated
11:35AM 50.5713 -22.0418 273° West  Level Estimated
11:36AM 50.5775 -22.2329 273° West  Level Estimated
11:37AM 50.5834 -22.4241 273° West  Level Estimated
11:38AM 47.5573 -22.7127 255° West 482 555 35,000  Level FlightAware Transoceanic
11:39AM 47.5233 -22.9047 255° West 482 555 35,000  Level FlightAware Transoceanic
11:40AM 47.4889 -23.0964 255° West 482 555 35,000  Level FlightAware Transoceanic
11:41AM 47.4542 -23.2878 255° West 482 555 35,000  Level FlightAware Transoceanic
11:42AM 47.4192 -23.4790 255° West 482 555 35,000  Level FlightAware Transoceanic
11:43AM 47.3839 -23.6700 255° West 482 555 35,000  Level FlightAware Transoceanic
11:44AM 47.3482 -23.8607 255° West 482 555 35,000  Level FlightAware Transoceanic
11:45AM 47.3123 -24.0511 254° West 482 555 35,000  Level FlightAware Transoceanic
11:46AM 47.2760 -24.2413 254° West 482 555 35,000  Level FlightAware Transoceanic
11:47AM 47.2394 -24.4312 254° West 482 555 35,000  Level FlightAware Transoceanic
11:48AM 47.2025 -24.6209 254° West 482 555 35,000  Level FlightAware Transoceanic
11:49AM 47.1653 -24.8102 254° West 482 555 35,000  Level FlightAware Transoceanic
11:50AM 47.1278 -24.9994 254° West 482 555 35,000  Level FlightAware Transoceanic
11:51AM 47.0900 -25.1882 254° West 482 555 35,000  Level FlightAware Transoceanic
11:52AM 47.0518 -25.3768 253° West 482 555 35,000  Level FlightAware Transoceanic
11:53AM 47.0134 -25.5651 253° West 482 555 35,000  Level FlightAware Transoceanic
11:54AM 46.9746 -25.7532 253° West 482 555 35,000  Level FlightAware Transoceanic
11:55AM 46.9355 -25.9409 253° West 482 555 35,000  Level FlightAware Transoceanic
11:56AM 46.8961 -26.1284 253° West 482 555 35,000  Level FlightAware Transoceanic
11:57AM 46.8565 -26.3156 253° West 482 555 35,000  Level FlightAware Transoceanic
11:58AM 46.8165 -26.5026 253° West 482 555 35,000  Level FlightAware Transoceanic
11:59AM 46.7762 -26.6892 252° West 482 555 35,000  Level FlightAware Transoceanic
12:00PM 46.7356 -26.8756 252° West 482 555 35,000  Level FlightAware Transoceanic
12:01PM 46.6947 -27.0617 252° West 482 555 35,000  Level FlightAware Transoceanic
12:02PM 46.6535 -27.2475 252° West 482 555 35,000  Level FlightAware Transoceanic
12:03PM 46.6120 -27.4330 252° West 482 555 35,000  Level FlightAware Transoceanic
12:04PM 46.5702 -27.6183 252° West 482 555 35,000  Level FlightAware Transoceanic
12:05PM 46.5281 -27.8032 252° West 482 555 35,000  Level FlightAware Transoceanic
12:06PM 46.4857 -27.9879 251° West 482 555 35,000  Level FlightAware Transoceanic
12:07PM 46.4430 -28.1723 251° West 482 555 35,000  Level FlightAware Transoceanic
12:08PM 46.4000 -28.3564 251° West 482 555 35,000  Level FlightAware Transoceanic
12:09PM 46.3568 -28.5402 251° West 482 555 35,000  Level FlightAware Transoceanic
12:10PM 46.3132 -28.7237 251° West 482 555 35,000  Level FlightAware Transoceanic
12:11PM 46.2693 -28.9069 251° West 482 555 35,000  Level FlightAware Transoceanic
12:12PM 46.2252 -29.0898 251° West 482 555 35,000  Level FlightAware Transoceanic
12:13PM 46.1807 -29.2725 251° West 482 555 35,000  Level FlightAware Transoceanic
12:14PM 46.1360 -29.4548 250° West 482 555 35,000  Level FlightAware Transoceanic
12:15PM 46.0909 -29.6368 250° West 482 555 35,000  Level FlightAware Transoceanic
12:16PM 46.0456 -29.8186 250° West 482 555 35,000  Level FlightAware Transoceanic
12:17PM 46.0042 -29.9832 250° West  Level FlightAware Approximate
12:17PM 46.0000 -30.0000 258° West 498 573 35,000  Level ETMS Enhanced Traffic Management System
12:18PM 45.9627 -30.1476 250° West  Level FlightAware Approximate
12:19PM 45.9793 -30.1359 258° West  Level FlightAware Approximate
12:20PM 45.9530 -30.3067 258° West  Level FlightAware Approximate
12:21PM 45.9265 -30.4773 257° West  Level FlightAware Approximate
12:22PM 45.8997 -30.6477 257° West  Level FlightAware Approximate
12:23PM 45.8727 -30.8179 257° West  Level FlightAware Approximate
12:24PM 45.7550 -31.5526 257° West 498 573 35,000  Level FlightAware Transoceanic
12:25PM 45.7229 -31.7457 257° West 498 573 35,000  Level FlightAware Transoceanic
12:26PM 45.6904 -31.9386 256° West 498 573 35,000  Level FlightAware Transoceanic
12:27PM 45.6577 -32.1313 256° West 498 573 35,000  Level FlightAware Transoceanic
12:28PM 45.6246 -32.3237 256° West 498 573 35,000  Level FlightAware Transoceanic
12:29PM 45.5912 -32.5159 256° West 498 573 35,000  Level FlightAware Transoceanic
12:30PM 45.5575 -32.7079 256° West 498 573 35,000  Level FlightAware Transoceanic
12:31PM 45.5235 -32.8996 256° West 498 573 35,000  Level FlightAware Transoceanic
12:32PM 45.4891 -33.0911 256° West 498 573 35,000  Level FlightAware Transoceanic
12:33PM 45.4544 -33.2824 255° West 498 573 35,000  Level FlightAware Transoceanic
12:34PM 45.4194 -33.4734 255° West 498 573 35,000  Level FlightAware Transoceanic
12:35PM 45.3841 -33.6642 255° West 498 573 35,000  Level FlightAware Transoceanic
12:36PM 45.3485 -33.8548 255° West 498 573 35,000  Level FlightAware Transoceanic
12:37PM 45.3125 -34.0451 255° West 498 573 35,000  Level FlightAware Transoceanic
12:38PM 45.2763 -34.2352 255° West 498 573 35,000  Level FlightAware Transoceanic
12:39PM 45.2397 -34.4250 255° West 498 573 35,000  Level FlightAware Transoceanic
12:40PM 45.2028 -34.6146 254° West 498 573 35,000  Level FlightAware Transoceanic
12:41PM 45.1656 -34.8040 254° West 498 573 35,000  Level FlightAware Transoceanic
12:42PM 45.1281 -34.9930 254° West 498 573 35,000  Level FlightAware Transoceanic
12:43PM 45.0902 -35.1819 254° West 498 573 35,000  Level FlightAware Transoceanic
12:44PM 45.0521 -35.3705 254° West 498 573 35,000  Level FlightAware Transoceanic
12:45PM 45.0136 -35.5588 254° West 498 573 35,000  Level FlightAware Transoceanic
12:46PM 44.9749 -35.7469 254° West 498 573 35,000  Level FlightAware Transoceanic
12:47PM 44.9358 -35.9347 254° West 498 573 35,000  Level FlightAware Transoceanic
12:48PM 44.8964 -36.1223 253° West 498 573 35,000  Level FlightAware Transoceanic
12:49PM 44.8567 -36.3096 253° West 498 573 35,000  Level FlightAware Transoceanic
12:50PM 44.8167 -36.4967 253° West 498 573 35,000  Level FlightAware Transoceanic
12:51PM 44.7765 -36.6835 253° West 498 573 35,000  Level FlightAware Transoceanic
12:52PM 44.7359 -36.8700 253° West 498 573 35,000  Level FlightAware Transoceanic
12:53PM 44.6950 -37.0563 253° West 498 573 35,000  Level FlightAware Transoceanic
12:54PM 44.6538 -37.2423 253° West 498 573 35,000  Level FlightAware Transoceanic
12:55PM 44.6123 -37.4280 253° West 498 573 35,000  Level FlightAware Transoceanic
12:56PM 44.5704 -37.6135 252° West 498 573 35,000  Level FlightAware Transoceanic
12:57PM 44.5283 -37.7987 252° West 498 573 35,000  Level FlightAware Transoceanic
12:58PM 44.4859 -37.9837 252° West 498 573 35,000  Level FlightAware Transoceanic
12:59PM 44.4432 -38.1683 252° West 498 573 35,000  Level FlightAware Transoceanic
01:00PM 44.4002 -38.3527 252° West 498 573 35,000  Level FlightAware Transoceanic
01:01PM 44.3569 -38.5369 252° West 498 573 35,000  Level FlightAware Transoceanic
01:02PM 44.3133 -38.7207 252° West 498 573 35,000  Level FlightAware Transoceanic
01:03PM 44.2695 -38.9043 251° West 498 573 35,000  Level FlightAware Transoceanic
01:04PM 44.2253 -39.0876 251° West 498 573 35,000  Level FlightAware Transoceanic
01:05PM 44.1808 -39.2706 251° West 498 573 35,000  Level FlightAware Transoceanic
01:06PM 44.1360 -39.4534 251° West 498 573 35,000  Level FlightAware Transoceanic
01:07PM 44.0910 -39.6359 251° West 498 573 35,000  Level FlightAware Transoceanic
01:08PM 44.0456 -39.8181 251° West 498 573 35,000  Level FlightAware Transoceanic
01:09PM 44.0056 -39.9777 251° West  Level FlightAware Approximate
01:10PM 43.9654 -40.1371 251° West  Level FlightAware Approximate
01:11PM 43.9877 -40.1205 262° West  Level FlightAware Approximate
01:12PM 43.9705 -40.2877 262° West  Level FlightAware Approximate
01:12PM 44.0000 -40.0000 258° West 488 562 35,000  Level New York Oceanic (ODAPS)
01:13PM 43.9530 -40.4549 262° West  Level FlightAware Approximate
01:14PM 43.9353 -40.6219 262° West  Level FlightAware Approximate
01:15PM 43.9174 -40.7888 262° West  Level FlightAware Approximate
01:16PM 43.8992 -40.9556 261° West  Level FlightAware Approximate
01:17PM 43.8807 -41.1223 261° West  Level FlightAware Approximate
01:18PM 43.7382 -41.6496 257° West 488 562 35,000  Level FlightAware Transoceanic
01:19PM 43.7077 -41.8320 257° West 488 562 35,000  Level FlightAware Transoceanic
01:20PM 43.6768 -42.0141 257° West 488 562 35,000  Level FlightAware Transoceanic
01:21PM 43.6457 -42.1962 257° West 488 562 35,000  Level FlightAware Transoceanic
01:22PM 43.6143 -42.3780 257° West 488 562 35,000  Level FlightAware Transoceanic
01:23PM 43.5826 -42.5596 256° West 488 562 35,000  Level FlightAware Transoceanic
01:24PM 43.5506 -42.7410 256° West 488 562 35,000  Level FlightAware Transoceanic
01:25PM 43.5183 -42.9223 256° West 488 562 35,000  Level FlightAware Transoceanic
01:26PM 43.4858 -43.1033 256° West 488 562 35,000  Level FlightAware Transoceanic
01:27PM 43.4529 -43.2842 256° West 488 562 35,000  Level FlightAware Transoceanic
01:28PM 43.4198 -43.4648 256° West 488 562 35,000  Level FlightAware Transoceanic
01:29PM 43.3864 -43.6453 256° West 488 562 35,000  Level FlightAware Transoceanic
01:30PM 43.3527 -43.8255 256° West 488 562 35,000  Level FlightAware Transoceanic
01:31PM 43.3187 -44.0056 255° West 488 562 35,000  Level FlightAware Transoceanic
01:32PM 43.2845 -44.1854 255° West 488 562 35,000  Level FlightAware Transoceanic
01:33PM 43.2499 -44.3651 255° West 488 562 35,000  Level FlightAware Transoceanic
01:34PM 43.2151 -44.5445 255° West 488 562 35,000  Level FlightAware Transoceanic
01:35PM 43.1800 -44.7237 255° West 488 562 35,000  Level FlightAware Transoceanic
01:36PM 43.1446 -44.9028 255° West 488 562 35,000  Level FlightAware Transoceanic
01:37PM 43.1089 -45.0816 255° West 488 562 35,000  Level FlightAware Transoceanic
01:38PM 43.0730 -45.2602 255° West 488 562 35,000  Level FlightAware Transoceanic
01:39PM 43.0368 -45.4386 254° West 488 562 35,000  Level FlightAware Transoceanic
01:40PM 43.0003 -45.6168 254° West 488 562 35,000  Level FlightAware Transoceanic
01:41PM 42.9635 -45.7948 254° West 488 562 35,000  Level FlightAware Transoceanic
01:42PM 42.9265 -45.9725 254° West 488 562 35,000  Level FlightAware Transoceanic
01:43PM 42.8891 -46.1501 254° West 488 562 35,000  Level FlightAware Transoceanic
01:44PM 42.8516 -46.3274 254° West 488 562 35,000  Level FlightAware Transoceanic
01:45PM 42.8137 -46.5046 254° West 488 562 35,000  Level FlightAware Transoceanic
01:46PM 42.7755 -46.6814 254° West 488 562 35,000  Level FlightAware Transoceanic
01:47PM 42.7371 -46.8581 253° West 488 562 35,000  Level FlightAware Transoceanic
01:48PM 42.6984 -47.0346 253° West 488 562 35,000  Level FlightAware Transoceanic
01:49PM 42.6595 -47.2108 253° West 488 562 35,000  Level FlightAware Transoceanic
01:50PM 42.6203 -47.3869 253° West 488 562 35,000  Level FlightAware Transoceanic
01:51PM 42.5808 -47.5627 253° West 488 562 35,000  Level FlightAware Transoceanic
01:52PM 42.5410 -47.7382 253° West 488 562 35,000  Level FlightAware Transoceanic
01:53PM 42.5010 -47.9136 253° West 488 562 35,000  Level FlightAware Transoceanic
01:54PM 42.4607 -48.0887 253° West 488 562 35,000  Level FlightAware Transoceanic
01:55PM 42.4201 -48.2636 252° West 488 562 35,000  Level FlightAware Transoceanic
01:56PM 42.3793 -48.4383 252° West 488 562 35,000  Level FlightAware Transoceanic
01:57PM 42.3382 -48.6127 252° West 488 562 35,000  Level FlightAware Transoceanic
01:58PM 42.2968 -48.7869 252° West 488 562 35,000  Level FlightAware Transoceanic
01:59PM 42.2552 -48.9609 252° West 488 562 35,000  Level FlightAware Transoceanic
02:00PM 42.2133 -49.1347 252° West 488 562 35,000  Level FlightAware Transoceanic
02:01PM 42.1712 -49.3082 252° West 488 562 35,000  Level FlightAware Transoceanic
02:02PM 42.1288 -49.4815 252° West 488 562 35,000  Level FlightAware Transoceanic
02:03PM 42.0861 -49.6546 252° West 488 562 35,000  Level FlightAware Transoceanic
02:04PM 42.0432 -49.8274 251° West 488 562 35,000  Level FlightAware Transoceanic
02:05PM 42.0000 -50.0000 258° West 488 562 35,000  Level FlightAware Transoceanic
02:06PM 41.9739 -50.1714 258° West 488 562 35,000  Level FlightAware Transoceanic
02:06PM 42.0000 -50.0000 258° West 469 540 35,000  Level New York Oceanic (ODAPS)
02:07PM 41.9476 -50.3426 258° West 488 562 35,000  Level FlightAware Transoceanic
02:08PM 41.9209 -50.5137 258° West 488 562 35,000  Level FlightAware Transoceanic
02:09PM 41.8941 -50.6847 258° West 488 562 35,000  Level FlightAware Transoceanic
02:10PM 41.8670 -50.8555 258° West 488 562 35,000  Level FlightAware Transoceanic
02:11PM 41.8396 -51.0262 258° West 488 562 35,000  Level FlightAware Transoceanic
02:12PM 41.7841 -51.3671 258° West 469 540 35,000  Level FlightAware Transoceanic
02:13PM 41.7560 -51.5373 257° West 469 540 35,000  Level FlightAware Transoceanic
02:14PM 41.7276 -51.7074 257° West 469 540 35,000  Level FlightAware Transoceanic
02:15PM 41.6990 -51.8774 257° West 469 540 35,000  Level FlightAware Transoceanic
02:16PM 41.6701 -52.0471 257° West 469 540 35,000  Level FlightAware Transoceanic
02:17PM 41.6410 -52.2168 257° West 469 540 35,000  Level FlightAware Transoceanic
02:18PM 41.6116 -52.3862 257° West 469 540 35,000  Level FlightAware Transoceanic
02:19PM 41.5820 -52.5555 257° West 469 540 35,000  Level FlightAware Transoceanic
02:20PM 41.5521 -52.7247 257° West 469 540 35,000  Level FlightAware Transoceanic
02:21PM 41.5220 -52.8937 257° West 469 540 35,000  Level FlightAware Transoceanic
02:22PM 41.4916 -53.0626 256° West 469 540 35,000  Level FlightAware Transoceanic
02:23PM 41.4610 -53.2313 256° West 469 540 35,000  Level FlightAware Transoceanic
02:24PM 41.4302 -53.3998 256° West 469 540 35,000  Level FlightAware Transoceanic
02:25PM 41.3991 -53.5681 256° West 469 540 35,000  Level FlightAware Transoceanic
02:26PM 41.3677 -53.7364 256° West 469 540 35,000  Level FlightAware Transoceanic
02:27PM 41.3361 -53.9044 256° West 469 540 35,000  Level FlightAware Transoceanic
02:28PM 41.3043 -54.0723 256° West 469 540 35,000  Level FlightAware Transoceanic
02:29PM 41.2722 -54.2400 256° West 469 540 35,000  Level FlightAware Transoceanic
02:30PM 41.2399 -54.4075 256° West 469 540 35,000  Level FlightAware Transoceanic
02:31PM 41.2073 -54.5749 255° West 469 540 35,000  Level FlightAware Transoceanic
02:32PM 41.1745 -54.7421 255° West 469 540 35,000  Level FlightAware Transoceanic
02:33PM 41.1414 -54.9092 255° West 469 540 35,000  Level FlightAware Transoceanic
02:34PM 41.1082 -55.0761 255° West 469 540 35,000  Level FlightAware Transoceanic
02:35PM 41.0746 -55.2428 255° West 469 540 35,000  Level FlightAware Transoceanic
02:36PM 41.0409 -55.4093 255° West 469 540 35,000  Level FlightAware Transoceanic
02:37PM 41.0069 -55.5757 255° West 469 540 35,000  Level FlightAware Transoceanic
02:38PM 40.9726 -55.7419 255° West 469 540 35,000  Level FlightAware Transoceanic
02:39PM 40.9381 -55.9079 255° West 469 540 35,000  Level FlightAware Transoceanic
02:40PM 40.9034 -56.0737 254° West 469 540 35,000  Level FlightAware Transoceanic
02:41PM 40.8684 -56.2394 254° West 469 540 35,000  Level FlightAware Transoceanic
02:42PM 40.8332 -56.4049 254° West 469 540 35,000  Level FlightAware Transoceanic
02:43PM 40.7978 -56.5702 254° West 469 540 35,000  Level FlightAware Transoceanic
02:44PM 40.7621 -56.7354 254° West 469 540 35,000  Level FlightAware Transoceanic
02:45PM 40.7262 -56.9003 254° West 469 540 35,000  Level FlightAware Transoceanic
02:46PM 40.6900 -57.0651 254° West 469 540 35,000  Level FlightAware Transoceanic
02:47PM 40.6537 -57.2297 254° West 469 540 35,000  Level FlightAware Transoceanic
02:48PM 40.6171 -57.3942 254° West 469 540 35,000  Level FlightAware Transoceanic
02:49PM 40.5802 -57.5584 253° West 469 540 35,000  Level FlightAware Transoceanic
02:50PM 40.5431 -57.7225 253° West 469 540 35,000  Level FlightAware Transoceanic
02:51PM 40.5058 -57.8864 253° West 469 540 35,000  Level FlightAware Transoceanic
02:52PM 40.4683 -58.0501 253° West 469 540 35,000  Level FlightAware Transoceanic
02:53PM 40.4305 -58.2136 253° West 469 540 35,000  Level FlightAware Transoceanic
02:54PM 40.3925 -58.3769 253° West 469 540 35,000  Level FlightAware Transoceanic
02:55PM 40.3543 -58.5401 253° West 469 540 35,000  Level FlightAware Transoceanic
02:56PM 40.3158 -58.7030 253° West 469 540 35,000  Level FlightAware Transoceanic
02:57PM 40.2771 -58.8658 253° West 469 540 35,000  Level FlightAware Transoceanic
02:58PM 40.2382 -59.0284 253° West 469 540 35,000  Level FlightAware Transoceanic
02:59PM 40.1991 -59.1908 252° West 469 540 35,000  Level FlightAware Transoceanic
03:00PM 40.1597 -59.3530 252° West 469 540 35,000  Level FlightAware Transoceanic
03:01PM 40.1201 -59.5150 252° West 469 540 35,000  Level FlightAware Transoceanic
03:02PM 40.0803 -59.6769 252° West 469 540 35,000  Level FlightAware Transoceanic
03:03PM 40.0403 -59.8385 252° West 469 540 35,000  Level FlightAware Transoceanic
03:04PM 40.0000 -60.0000 250° West 469 540 35,000  Level FlightAware Transoceanic
03:05PM 39.9577 -60.1536 250° West 469 540 35,000  Level FlightAware Transoceanic
03:06PM 39.9152 -60.3070 250° West 469 540 35,000  Level FlightAware Transoceanic
03:07PM 39.8725 -60.4602 250° West 469 540 35,000  Level FlightAware Transoceanic
03:08PM 39.8296 -60.6133 250° West 469 540 35,000  Level FlightAware Transoceanic
03:08PM 40.0000 -60.0000 250° West 451 519 35,000  Level New York Oceanic (ODAPS)
03:09PM 39.7864 -60.7661 250° West 469 540 35,000  Level FlightAware Transoceanic
03:10PM 39.7431 -60.9188 250° West 469 540 35,000  Level FlightAware Transoceanic
03:11PM 39.6996 -61.0712 250° West 469 540 35,000  Level FlightAware Transoceanic
03:12PM 39.6559 -61.2235 249° West 469 540 35,000  Level FlightAware Transoceanic
03:13PM 39.6120 -61.3756 249° West 469 540 35,000  Level FlightAware Transoceanic
03:14PM 39.5679 -61.5274 249° West 469 540 35,000  Level FlightAware Transoceanic
03:15PM 39.6120 -61.3756 249° West 451 519 35,000  Level FlightAware Transoceanic
03:16PM 39.5679 -61.5274 249° West 451 519 35,000  Level FlightAware Transoceanic
03:17PM 39.5236 -61.6791 249° West 451 519 35,000  Level FlightAware Transoceanic
03:18PM 39.4791 -61.8306 249° West 451 519 35,000  Level FlightAware Transoceanic
03:19PM 39.4344 -61.9819 249° West 451 519 35,000  Level FlightAware Transoceanic
03:20PM 39.3895 -62.1330 249° West 451 519 35,000  Level FlightAware Transoceanic
03:21PM 39.3444 -62.2839 249° West 451 519 35,000  Level FlightAware Transoceanic
03:22PM 39.2991 -62.4346 249° West 451 519 35,000  Level FlightAware Transoceanic
03:23PM 39.2536 -62.5851 249° West 451 519 35,000  Level FlightAware Transoceanic
03:24PM 39.2079 -62.7355 249° West 451 519 35,000  Level FlightAware Transoceanic
03:25PM 39.1621 -62.8856 248° West 451 519 35,000  Level FlightAware Transoceanic
03:26PM 39.1160 -63.0355 248° West 451 519 35,000  Level FlightAware Transoceanic
03:27PM 39.0698 -63.1852 248° West 451 519 35,000  Level FlightAware Transoceanic
03:28PM 39.0233 -63.3348 248° West 451 519 35,000  Level FlightAware Transoceanic
03:29PM 38.9767 -63.4841 248° West 451 519 35,000  Level FlightAware Transoceanic
03:30PM 38.9299 -63.6333 248° West 451 519 35,000  Level FlightAware Transoceanic
03:31PM 38.8829 -63.7822 248° West 451 519 35,000  Level FlightAware Transoceanic
03:32PM 38.8357 -63.9310 248° West 451 519 35,000  Level FlightAware Transoceanic
03:33PM 38.7883 -64.0795 248° West 451 519 35,000  Level FlightAware Transoceanic
03:34PM 38.7407 -64.2279 248° West 451 519 35,000  Level FlightAware Transoceanic
03:35PM 38.6929 -64.3760 248° West 451 519 35,000  Level FlightAware Transoceanic
03:36PM 38.6450 -64.5240 247° West 451 519 35,000  Level FlightAware Transoceanic
03:37PM 38.5968 -64.6717 247° West 451 519 35,000  Level FlightAware Transoceanic
03:38PM 38.5485 -64.8193 247° West 451 519 35,000  Level FlightAware Transoceanic
03:39PM 38.5000 -64.9667 235° Southwest 451 519 35,000  Level FlightAware Transoceanic
03:40PM 38.4213 -65.1083 235° Southwest 451 519 35,000  Level FlightAware Transoceanic
03:41PM 38.3425 -65.2497 235° Southwest 451 519 35,000  Level FlightAware Transoceanic
03:41PM 38.5000 -64.9667 235° Southwest 461 531 35,000  Level New York Oceanic (ODAPS)
03:42PM 38.2635 -65.3907 234° Southwest 451 519 35,000  Level FlightAware Transoceanic
03:43PM 38.1843 -65.5315 234° Southwest 451 519 35,000  Level FlightAware Transoceanic
03:44PM 38.1050 -65.6719 234° Southwest 451 519 35,000  Level FlightAware Transoceanic
03:45PM 38.0255 -65.8121 234° Southwest 451 519 35,000  Level FlightAware Transoceanic
03:46PM 37.9458 -65.9519 234° Southwest 451 519 35,000  Level FlightAware Transoceanic
03:47PM 37.8659 -66.0914 234° Southwest 451 519 35,000  Level FlightAware Transoceanic
03:48PM 37.8148 -66.1805 234° Southwest 461 531 35,000  Level FlightAware Transoceanic
03:49PM 37.7378 -66.3140 234° Southwest 461 531 35,000  Level FlightAware Transoceanic
03:50PM 37.6608 -66.4472 234° Southwest 461 531 35,000  Level FlightAware Transoceanic
03:51PM 37.5836 -66.5801 234° Southwest 461 531 35,000  Level FlightAware Transoceanic
03:52PM 37.5062 -66.7128 234° Southwest 461 531 35,000  Level FlightAware Transoceanic
03:53PM 37.4287 -66.8452 234° Southwest 461 531 35,000  Level FlightAware Transoceanic
03:54PM 37.3511 -66.9773 233° Southwest 461 531 35,000  Level FlightAware Transoceanic
03:55PM 37.2733 -67.1091 233° Southwest 461 531 35,000  Level FlightAware Transoceanic
03:55PM 37.4500 -66.8167 233° Southwest 530 610 35,000  Level New York Oceanic (ODAPS)
03:56PM 37.1954 -67.2406 233° Southwest 461 531 35,000  Level FlightAware Transoceanic
03:57PM 37.1173 -67.3719 233° Southwest 461 531 35,000  Level FlightAware Transoceanic
03:58PM 37.0390 -67.5029 233° Southwest 461 531 35,000  Level FlightAware Transoceanic
03:59PM 36.9607 -67.6337 233° Southwest 461 531 35,000  Level FlightAware Transoceanic
04:00PM 36.8821 -67.7641 233° Southwest 461 531 35,000  Level FlightAware Transoceanic
04:01PM 36.8035 -67.8943 233° Southwest 461 531 35,000  Level FlightAware Transoceanic
04:02PM 36.6558 -68.1382 233° Southwest 530 610 35,000  Level FlightAware Transoceanic
04:03PM 36.5667 -68.2833 247° West 530 610 35,000  Level FlightAware Transoceanic
04:04PM 36.5131 -68.4392 247° West 530 610 35,000  Level FlightAware Transoceanic
04:05PM 36.4592 -68.5949 247° West 530 610 35,000  Level FlightAware Transoceanic
04:06PM 36.4052 -68.7504 247° West 530 610 35,000  Level FlightAware Transoceanic
04:06PM 36.5667 -68.2833 247° West 474 545 35,000  Level New York Oceanic (ODAPS)
04:07PM 36.3510 -68.9056 247° West 530 610 35,000  Level FlightAware Transoceanic
04:08PM 36.2966 -69.0607 246° West 530 610 35,000  Level FlightAware Transoceanic
04:09PM 36.2420 -69.2155 246° West 530 610 35,000  Level FlightAware Transoceanic
04:10PM 36.1871 -69.3701 246° West 530 610 35,000  Level FlightAware Transoceanic
04:11PM 36.1321 -69.5245 246° West 530 610 35,000  Level FlightAware Transoceanic
04:12PM 36.0947 -69.6291 246° West 474 545 35,000  Level FlightAware Transoceanic
04:13PM 36.0413 -69.7777 246° West 474 545 35,000  Level FlightAware Transoceanic
04:14PM 35.9878 -69.9260 246° West 474 545 35,000  Level FlightAware Transoceanic
04:15PM 35.9340 -70.0741 246° West 474 545 35,000  Level FlightAware Transoceanic
04:16PM 35.8801 -70.2220 246° West 474 545 35,000  Level FlightAware Transoceanic
04:17PM 35.8260 -70.3697 246° West 474 545 35,000  Level FlightAware Transoceanic
04:18PM 35.7718 -70.5173 246° West 474 545 35,000  Level FlightAware Transoceanic
04:19PM 35.7173 -70.6646 245° Southwest 474 545 35,000  Level FlightAware Transoceanic
04:20PM 35.6627 -70.8117 245° Southwest 474 545 35,000  Level FlightAware Transoceanic
04:21PM 35.6078 -70.9586 245° Southwest 474 545 35,000  Level FlightAware Transoceanic
04:22PM 35.5528 -71.1053 245° Southwest 474 545 35,000  Level FlightAware Transoceanic
04:23PM 35.4977 -71.2518 245° Southwest 474 545 35,000  Level FlightAware Transoceanic
04:24PM 35.4423 -71.3981 245° Southwest 474 545 35,000  Level FlightAware Transoceanic
04:25PM 35.3868 -71.5443 245° Southwest 474 545 35,000  Level FlightAware Transoceanic
04:26PM 35.3311 -71.6901 245° Southwest 474 545 35,000  Level FlightAware Transoceanic
04:27PM 35.2752 -71.8359 245° Southwest 474 545 35,000  Level FlightAware Transoceanic
04:28PM 35.2192 -71.9814 245° Southwest 474 545 35,000  Level FlightAware Transoceanic
04:29PM 35.1630 -72.1267 245° Southwest 474 545 35,000  Level FlightAware Transoceanic
04:30PM 35.1066 -72.2718 245° Southwest 474 545 35,000  Level FlightAware Transoceanic
04:31PM 35.0500 -72.4167 231° Southwest 474 545 35,000  Level FlightAware Transoceanic
04:32PM 34.9612 -72.5488 231° Southwest 474 545 35,000  Level FlightAware Transoceanic
04:32PM 34.9375 -72.6117 230° Southwest 506 582 35,000  Level New York Center
04:33PM 34.8722 -72.6806 230° Southwest 474 545 35,000 1,320 Level FlightAware Transoceanic
04:33PM 34.8392 -72.7461 228° Southwest 527 606 36,400  Climbing New York Center
04:34PM 34.7830 -72.8121 230° Southwest 474 545 35,000 600 Descending FlightAware Transoceanic
04:34PM 34.7578 -72.8678 231° Southwest 513 590 37,000  Climbing New York Center
04:35PM 34.6937 -72.9434 230° Southwest 474 545 35,000  Descending FlightAware Transoceanic
04:35PM 34.6678 -72.9942 229° Southwest 502 578 37,000  Climbing New York Center
04:36PM 34.6043 -73.0743 230° Southwest 474 545 35,000  Descending FlightAware Transoceanic
04:36PM 34.5778 -73.1253 230° Southwest 503 579 37,000 1,500 Climbing New York Center
04:37PM 34.4894 -73.2486 229° Southwest 501 577 37,000  Level New York Center
04:38PM 34.3992 -73.3764 229° Southwest 496 571 37,000  Level New York Center
04:39PM 34.3067 -73.5042 229° Southwest 496 571 37,000  Level New York Center
04:40PM 34.2200 -73.6292 230° Southwest 496 571 37,000  Level New York Center
04:41PM 34.1336 -73.7492 229° Southwest 489 563 37,000  Level New York Center
04:42PM 34.0428 -73.8733 229° Southwest 489 563 37,000  Level New York Center
04:43PM 33.9703 -74.0108 238° Southwest 470 541 37,000  Level New York Center
04:44PM 33.8603 -74.1389 224° Southwest 516 594 37,000  Level New York Center
04:45PM 33.7669 -74.2597 227° Southwest 504 580 37,000  Level New York Center
04:46PM 33.6842 -74.3808 231° Southwest 488 562 37,000  Level New York Center
04:47PM 33.5861 -74.5061 227° Southwest 497 572 37,000  Level New York Center
04:48PM 33.5031 -74.6292 231° Southwest 492 566 37,000  Level New York Center
04:49PM 33.4175 -74.7519 230° Southwest 492 566 37,000  Level New York Center
04:50PM 33.3297 -74.8769 230° Southwest 497 572 37,000  Level New York Center
04:51PM 33.2378 -75.0036 229° Southwest 497 572 37,000  Level New York Center
04:52PM 33.1475 -75.1281 229° Southwest 497 572 37,000  Level New York Center
04:53PM 33.0658 -75.2500 231° Southwest 497 572 37,000 240 Level New York Center
04:54PM 32.9778 -75.3736 230° Southwest 497 572 37,500 480 Climbing New York Center
04:55PM 32.8872 -75.4972 229° Southwest 497 572 38,000 240 Climbing New York Center
04:56PM 32.8100 -75.6039 229° Southwest 502 578 38,000  Level New York Center
04:57PM 32.7214 -75.7269 229° Southwest 488 562 38,000  Level New York Center
04:58PM 32.6328 -75.8522 230° Southwest 493 567 38,000  Level New York Center
04:59PM 32.5439 -75.9722 229° Southwest 493 567 38,000  Level New York Center
05:00PM 32.4550 -76.0969 230° Southwest 493 567 38,000  Level New York Center
05:01PM 32.3683 -76.2117 228° Southwest 487 560 38,000  Level New York Center
05:02PM 32.2300 -76.4050 230° Southwest 499 574 38,000  Level Jacksonville Center
05:03PM 32.1419 -76.5239 229° Southwest 493 567 38,000  Level Jacksonville Center
05:04PM 32.0519 -76.6456 229° Southwest 488 562 38,000  Level Jacksonville Center
05:05PM 31.9636 -76.7592 228° Southwest 483 556 38,000  Level Jacksonville Center
05:06PM 31.8772 -76.8725 228° Southwest 483 556 38,000  Level Jacksonville Center
05:07PM 31.7892 -76.9931 229° Southwest 488 562 38,000  Level Jacksonville Center
05:08PM 31.7050 -77.1156 231° Southwest 482 555 38,000  Level Jacksonville Center
05:09PM 31.6228 -77.2378 232° Southwest 482 555 38,000  Level Jacksonville Center
05:10PM 31.5406 -77.3622 232° Southwest 487 560 38,000  Level Jacksonville Center
05:11PM 31.4581 -77.4792 230° Southwest 487 560 38,000  Level Jacksonville Center
05:12PM 31.3756 -77.6031 232° Southwest 482 555 38,000  Level Jacksonville Center
05:13PM 31.2931 -77.7292 233° Southwest 481 554 38,000  Level Jacksonville Center
05:14PM 31.2119 -77.8381 229° Southwest 476 548 38,000  Level Jacksonville Center
05:15PM 31.1314 -77.9661 234° Southwest 476 548 38,000  Level Jacksonville Center
05:16PM 31.0528 -78.0892 233° Southwest 481 554 38,000  Level Jacksonville Center
05:17PM 30.9661 -78.2292 234° Southwest 487 560 38,000  Level Jacksonville Center
05:18PM 30.8892 -78.3517 234° Southwest 487 560 38,000  Level Jacksonville Center
05:19PM 30.8075 -78.4692 231° Southwest 482 555 38,000  Level Jacksonville Center
05:20PM 30.7261 -78.5864 231° Southwest 477 549 38,000  Level Jacksonville Center
05:22PM 30.5953 -78.7300 223° Southwest 464 534 38,000  Level Miami Center
05:23PM 30.4592 -78.7756 196° South 479 551 38,000  Level Miami Center
05:24PM 30.3253 -78.8164 195° South 492 566 38,000  Level Miami Center
05:25PM 30.1828 -78.8619 195° South 512 589 38,000  Level Miami Center
05:26PM 30.0508 -78.9072 197° South 512 589 38,000  Level Miami Center
05:27PM 29.9147 -78.9550 197° South 519 597 38,000  Level Miami Center
05:28PM 29.7786 -78.9978 195° South 519 597 38,000  Level Miami Center
05:29PM 29.6361 -79.0356 193° South 519 597 38,000  Level Miami Center
05:30PM 29.4978 -79.0756 194° South 514 592 38,000  Level Miami Center
05:36PM 28.9790 -79.7180 194° South 455 524 38,000  Level FlightAware
05:37PM 28.9480 -79.7890 243° Southwest 455 524 38,000  Level FlightAware
05:37PM 28.9020 -79.8940 243° Southwest 454 522 38,000  Level FlightAware
05:38PM 28.8600 -79.9890 243° Southwest 454 522 38,000  Level FlightAware
05:39PM 28.8090 -80.1080 244° Southwest 454 522 38,000  Level FlightAware
05:40PM 28.7710 -80.1940 243° Southwest 455 524 38,000  Level FlightAware
05:40PM 28.7310 -80.2850 243° Southwest 456 525 38,000  Level FlightAware
05:41PM 28.6890 -80.3790 243° Southwest 458 527 38,000  Level FlightAware
05:42PM 28.6470 -80.4760 244° Southwest 458 527 38,000  Level FlightAware
05:42PM 28.6090 -80.5610 243° Southwest 462 532 38,000  Level FlightAware
05:43PM 28.5700 -80.6500 243° Southwest 463 533 38,000  Level FlightAware
05:44PM 28.5260 -80.7480 243° Southwest 463 533 38,000  Level FlightAware
05:45PM 28.4870 -80.8370 244° Southwest 463 533 38,000  Level FlightAware
05:45PM 28.4440 -80.9320 243° Southwest 462 532 38,000  Level FlightAware
05:46PM 28.4040 -81.0210 243° Southwest 462 532 38,000  Level FlightAware
05:47PM 28.3660 -81.1080 244° Southwest 462 532 38,000  Level FlightAware
05:47PM 28.3230 -81.2030 243° Southwest 460 529 38,000  Level FlightAware
05:48PM 28.2840 -81.2910 243° Southwest 462 532 38,000  Level FlightAware
05:49PM 28.2450 -81.3770 243° Southwest 462 532 38,000  Level FlightAware
05:49PM 28.2000 -81.4750 242° Southwest 463 533 38,000  Level FlightAware
05:50PM 28.1680 -81.5460 243° Southwest 464 534 38,000  Level FlightAware
05:51PM 28.1220 -81.6470 243° Southwest 461 531 38,000  Level FlightAware
05:52PM 28.0820 -81.7360 243° Southwest 462 532 38,000  Level FlightAware
05:52PM 28.0380 -81.8320 243° Southwest 463 533 38,000  Level FlightAware
05:53PM 27.9980 -81.9210 243° Southwest 463 533 38,000  Level FlightAware
05:54PM 27.9590 -82.0040 242° Southwest 461 531 38,000  Level FlightAware
05:54PM 27.9140 -82.1030 243° Southwest 460 529 38,000  Level FlightAware
05:55PM 27.8760 -82.1860 243° Southwest 459 528 38,000  Level FlightAware
05:56PM 27.8300 -82.2840 242° Southwest 460 529 38,000  Level FlightAware
05:56PM 27.7920 -82.3670 243° Southwest 461 531 38,000  Level FlightAware
05:57PM 27.7520 -82.4550 243° Southwest 462 532 38,000  Level FlightAware
05:58PM 27.7120 -82.5400 242° Southwest 461 531 38,000  Level FlightAware
05:59PM 27.6680 -82.6340 242° Southwest 460 529 38,000  Level FlightAware
05:59PM 27.6280 -82.7210 243° Southwest 459 528 38,000  Level FlightAware
06:00PM 27.5880 -82.8060 242° Southwest 458 527 38,000  Level FlightAware
06:01PM 27.5380 -82.9130 242° Southwest 457 526 38,000  Level FlightAware
06:01PM 27.5000 -82.9930 242° Southwest 457 526 38,000  Level FlightAware
06:02PM 27.4520 -83.0960 242° Southwest 457 526 38,000  Level FlightAware
06:03PM 27.4120 -83.1810 242° Southwest 459 528 38,000  Level FlightAware
06:03PM 27.3720 -83.2650 242° Southwest 461 531 38,000  Level FlightAware
06:04PM 27.3270 -83.3610 242° Southwest 463 533 38,000  Level FlightAware
06:05PM 27.2870 -83.4460 242° Southwest 460 529 38,000  Level FlightAware
06:06PM 27.2350 -83.5520 241° Southwest 459 528 38,000  Level FlightAware
06:06PM 27.2000 -83.6230 241° Southwest 459 528 38,000  Level FlightAware
06:07PM 27.1650 -83.6940 241° Southwest 459 528 38,000  Level FlightAware
06:08PM 27.1300 -83.7650 241° Southwest 459 528 38,000  Level FlightAware
06:09PM 27.0540 -83.9300 243° Southwest 449 517 38,000  Level FlightAware
06:10PM 27.0200 -83.9990 241° Southwest 449 517 38,000  Level FlightAware
06:10PM 26.9860 -84.0690 241° Southwest 449 517 38,000  Level FlightAware
06:11PM 26.9400 -84.1690 243° Southwest 38,000  Level FlightAware
06:11PM 26.9158 -84.2244 243° Southwest 438 504 38,000  Level Houston Center
06:12PM 26.8586 -84.3428 242° Southwest 435 501 38,000  Level Houston Center
06:13PM 26.8006 -84.4589 241° Southwest 429 494 38,000  Level Houston Center
06:14PM 26.7442 -84.5744 241° Southwest 425 489 38,000  Level Houston Center
06:15PM 26.6786 -84.7133 242° Southwest 423 487 38,000  Level Houston Center
06:16PM 26.6225 -84.8278 241° Southwest 420 483 38,000  Level Houston Center
06:18PM 26.5658 -84.9397 241° Southwest 417 480 38,000  Level Houston Center
06:19PM 26.5100 -85.0539 241° Southwest 419 482 38,000  Level Houston Center
06:20PM 26.4553 -85.1664 242° Southwest 415 478 38,000  Level Houston Center
06:21PM 26.3875 -85.3033 241° Southwest 419 482 38,000  Level Houston Center
06:22PM 26.3311 -85.4175 241° Southwest 421 484 38,000  Level Houston Center
06:23PM 26.2750 -85.5294 241° Southwest 416 479 38,000  Level Houston Center
06:24PM 26.2197 -85.6431 242° Southwest 417 480 38,000 -60 Level Houston Center
06:25PM 26.1636 -85.7553 241° Southwest 417 480 37,900  Descending Houston Center
06:26PM 26.1067 -85.8689 241° Southwest 419 482 38,000  Climbing Houston Center
06:28PM 25.9828 -86.0633 228° Southwest  Level FlightAware Approximate
06:35PM 25.4394 -86.8481 233° Southwest  Level FlightAware Approximate
06:36PM 25.3627 -86.9607 233° Southwest  Level FlightAware Approximate
06:37PM 25.2858 -87.0732 233° Southwest  Level FlightAware Approximate
06:38PM 25.2089 -87.1855 233° Southwest  Level FlightAware Approximate
06:39PM 25.1319 -87.2977 233° Southwest  Level FlightAware Approximate
06:40PM 25.0548 -87.4098 233° Southwest  Level FlightAware Approximate
06:41PM 24.9771 -87.5213 232° Southwest  Level FlightAware Approximate
06:42PM 24.8993 -87.6326 232° Southwest  Level FlightAware Approximate
06:42PM 24.9680 -87.5430 232° Southwest 428 493 38,000  Level FlightAware
06:42PM 24.9290 -87.5980 232° Southwest 428 493 38,000  Level FlightAware
06:43PM 24.8770 -87.6720 232° Southwest 428 493 38,000  Level FlightAware
06:44PM 24.8360 -87.7300 232° Southwest 428 493 38,000  Level FlightAware
06:44PM 24.7940 -87.7880 231° Southwest 428 493 38,000  Level FlightAware
06:45PM 24.7530 -87.8470 233° Southwest 428 493 38,000  Level FlightAware
06:46PM 24.7110 -87.9050 231° Southwest 428 493 38,000  Level FlightAware
06:46PM 24.6060 -88.0560 233° Southwest 433 498 38,000  Level FlightAware
06:47PM 24.5420 -88.1460 232° Southwest 434 499 38,000  Level FlightAware
06:48PM 24.4910 -88.2260 235° Southwest 427 491 38,000  Level FlightAware
06:49PM 24.4570 -88.2990 243° Southwest 426 490 38,000  Level FlightAware
06:49PM 24.4200 -88.3780 243° Southwest 426 490 38,000  Level FlightAware
06:50PM 24.3810 -88.4630 243° Southwest 427 491 38,000  Level FlightAware
06:51PM 24.3420 -88.5480 243° Southwest 428 493 38,000  Level FlightAware
06:51PM 24.3130 -88.6110 243° Southwest 428 493 38,000  Level FlightAware
06:52PM 24.2750 -88.6930 243° Southwest 428 493 38,000  Level FlightAware
06:53PM 24.2450 -88.7590 244° Southwest 428 493 38,000  Level FlightAware
06:54PM 24.1930 -88.8700 243° Southwest 430 495 38,000  Level FlightAware
06:54PM 24.1520 -88.9600 243° Southwest 430 495 38,000  Level FlightAware
06:55PM 24.1180 -89.0330 243° Southwest 431 496 38,000  Level FlightAware
06:56PM 24.0810 -89.1130 243° Southwest 431 496 38,000  Level FlightAware
06:56PM 24.0500 -89.1790 243° Southwest 431 496 38,000  Level FlightAware
06:57PM 24.0100 -89.2650 243° Southwest 432 497 38,000  Level FlightAware
06:58PM 23.9640 -89.3620 243° Southwest 432 497 38,000  Level FlightAware
06:58PM 23.9360 -89.4230 243° Southwest 432 497 38,000  Level FlightAware
06:59PM 23.8870 -89.5280 243° Southwest 432 497 38,000  Level FlightAware
07:00PM 23.8560 -89.5910 242° Southwest 432 497 38,000  Level FlightAware
07:01PM 23.8160 -89.6740 242° Southwest 432 497 38,000  Level FlightAware
07:01PM 23.7840 -89.7390 242° Southwest 432 497 38,000  Level FlightAware
07:02PM 23.7520 -89.8050 242° Southwest 432 497 38,000  Level FlightAware
07:03PM 23.7200 -89.8700 242° Southwest 432 497 38,000  Level FlightAware
07:03PM 23.6880 -89.9360 242° Southwest 432 497 38,000  Level FlightAware
07:04PM 23.6480 -90.0180 242° Southwest 432 497 38,000  Level FlightAware
07:05PM 23.6160 -90.0830 242° Southwest 432 497 38,000  Level FlightAware
07:06PM 23.5850 -90.1490 243° Southwest 432 497 38,000  Level FlightAware
07:06PM 23.5530 -90.2140 242° Southwest 432 497 38,000  Level FlightAware
07:07PM 23.5210 -90.2790 242° Southwest 432 497 38,000  Level FlightAware
07:08PM 23.4890 -90.3450 242° Southwest 432 497 38,000  Level FlightAware
07:08PM 23.4490 -90.4270 242° Southwest 432 497 38,000  Level FlightAware
07:09PM 23.4170 -90.4920 242° Southwest 432 497 38,000  Level FlightAware
07:12PM 23.2717 -90.7930 242° Southwest  Level FlightAware Approximate
07:13PM 23.2122 -90.9157 242° Southwest  Level FlightAware Approximate
07:14PM 23.1526 -91.0382 242° Southwest  Level FlightAware Approximate
07:15PM 23.0930 -91.1607 242° Southwest  Level FlightAware Approximate
07:16PM 23.0332 -91.2830 242° Southwest  Level FlightAware Approximate
07:17PM 22.9733 -91.4053 242° Southwest  Level FlightAware Approximate
07:18PM 22.9134 -91.5274 242° Southwest  Level FlightAware Approximate
07:19PM 22.8533 -91.6494 242° Southwest  Level FlightAware Approximate
07:20PM 22.7932 -91.7713 242° Southwest  Level FlightAware Approximate
07:21PM 22.7330 -91.8932 242° Southwest  Level FlightAware Approximate
07:22PM 22.6726 -92.0148 242° Southwest  Level FlightAware Approximate
07:23PM 22.6122 -92.1364 242° Southwest  Level FlightAware Approximate
07:24PM 22.5517 -92.2579 242° Southwest  Level FlightAware Approximate
07:25PM 22.4911 -92.3793 242° Southwest  Level FlightAware Approximate
07:26PM 22.4304 -92.5006 242° Southwest  Level FlightAware Approximate
07:27PM 22.3696 -92.6217 242° Southwest  Level FlightAware Approximate
07:28PM 22.3088 -92.7428 241° Southwest  Level FlightAware Approximate
07:29PM 22.2478 -92.8637 241° Southwest  Level FlightAware Approximate
07:30PM 22.1868 -92.9846 241° Southwest  Level FlightAware Approximate
07:31PM 22.1256 -93.1053 241° Southwest  Level FlightAware Approximate
07:32PM 22.0644 -93.2260 241° Southwest  Level FlightAware Approximate
07:33PM 22.0031 -93.3465 241° Southwest  Level FlightAware Approximate
07:34PM 21.9417 -93.4669 241° Southwest  Level FlightAware Approximate
07:35PM 21.8803 -93.5873 241° Southwest  Level FlightAware Approximate
07:36PM 21.8189 -93.7076 241° Southwest  Level FlightAware Approximate
07:37PM 21.7574 -93.8279 241° Southwest  Level FlightAware Approximate
07:38PM 21.6957 -93.9479 241° Southwest  Level FlightAware Approximate
07:39PM 21.6340 -94.0679 241° Southwest  Level FlightAware Approximate
07:40PM 21.5722 -94.1878 241° Southwest  Level FlightAware Approximate
07:41PM 21.5104 -94.3076 241° Southwest  Level FlightAware Approximate
07:42PM 21.4484 -94.4273 241° Southwest  Level FlightAware Approximate
07:43PM 21.3864 -94.5469 241° Southwest  Level FlightAware Approximate
07:44PM 21.3242 -94.6664 241° Southwest  Level FlightAware Approximate
07:45PM 21.2620 -94.7857 241° Southwest  Level FlightAware Approximate
07:46PM 21.1997 -94.9050 241° Southwest  Level FlightAware Approximate
07:47PM 21.1378 -95.0245 242° Southwest  Level FlightAware Approximate
07:48PM 21.0776 -95.1449 242° Southwest  Level FlightAware Approximate
07:49PM 21.0174 -95.2653 242° Southwest  Level FlightAware Approximate
07:50PM 20.9905 -95.3986 258° West  Level FlightAware Approximate
07:51PM 20.9639 -95.5321 258° West  Level FlightAware Approximate
07:52PM 20.9372 -95.6656 258° West  Level FlightAware Approximate
07:53PM 20.9104 -95.7990 258° West  Level FlightAware Approximate
07:54PM 20.8835 -95.9323 258° West  Level FlightAware Approximate
07:55PM 20.8593 -96.0662 259° West  Level FlightAware Approximate
07:56PM 20.8351 -96.2001 259° West  Level FlightAware Approximate
07:57PM 20.8107 -96.3340 259° West  Level FlightAware Approximate
07:58PM 20.7862 -96.4678 259° West  Level FlightAware Approximate
07:59PM 20.7619 -96.6015 259° West  Level FlightAware Approximate
08:00PM 20.7346 -96.7346 256° West  Level FlightAware Approximate
08:01PM 20.7046 -96.8671 256° West  Level FlightAware Approximate
08:02PM 20.6744 -96.9994 256° West  Level FlightAware Approximate
08:03PM 20.6486 -97.1328 259° West  Level FlightAware Approximate
08:04PM 20.6333 -97.2674 270° West  Level FlightAware Approximate
08:05PM 20.6098 -97.4009 258° West  Level FlightAware Approximate
08:06PM 20.5649 -97.5274 244° Southwest  Level FlightAware Approximate
08:07PM 20.5109 -97.6506 250° West  Level FlightAware Approximate
08:08PM 20.4648 -97.7774 248° West  Level FlightAware Approximate
08:09PM 20.4174 -97.9036 248° West  Level FlightAware Approximate
08:10PM 20.3716 -98.0305 249° West  Level FlightAware Approximate
08:11PM 20.3267 -98.1577 249° West  Level FlightAware Approximate
08:12PM 20.2805 -98.2843 248° West  Level FlightAware Approximate
08:13PM 20.2322 -98.4101 248° West  Level FlightAware Approximate
08:14PM 20.1838 -98.5357 248° West  Level FlightAware Approximate
08:15PM 20.1354 -98.6613 248° West  Level FlightAware Approximate
08:16PM 20.0269 -98.7282 205° Southwest  Level FlightAware Approximate
08:17PM 19.9128 -98.7885 207° Southwest  Level FlightAware Approximate
08:18PM 19.7994 -98.8503 208° Southwest  Level FlightAware Approximate
08:19PM 19.6865 -98.9131 208° Southwest  Level FlightAware Approximate
08:20PM 19.5749 -98.9784 209° Southwest  Level FlightAware Approximate
08:21PM 19.4614 -99.0398 210° Southwest  Level FlightAware Approximate
08:22PM 19.4363 -99.0721 210° Southwest  Level Estimated
08:23PM 19.4363 -99.0721 210° Southwest  Level Estimated
08:24PM 19.4363 -99.0721 210° Southwest  Level Estimated
08:25PM 19.4363 -99.0721 210° Southwest  Level Estimated
08:26PM 19.4363 -99.0721 210° Southwest  Level Estimated
08:27PM 19.4363 -99.0721 210° Southwest  Level Estimated
08:28PM 19.4363 -99.0721 210° Southwest  Level Estimated
08:29PM 19.4363 -99.0721 210° Southwest  Level Estimated
08:30PM 19.4363 -99.0721 210° Southwest  Level Estimated
08:31PM 19.4363 -99.0721 210° Southwest  Level Estimated
08:32PM 19.4363 -99.0721 210° Southwest  Level Estimated
08:33PM 19.4363 -99.0721 210° Southwest  Level Estimated
08:34PM 19.4363 -99.0721 210° Southwest  Level Estimated
08:35PM 19.4363 -99.0721 210° Southwest  Level Estimated
08:36PM 19.4363 -99.0721 210° Southwest  Level Estimated
08:37PM 19.4363 -99.0721 210° Southwest  Level Estimated
08:38PM 19.4363 -99.0721 210° Southwest  Level Estimated
08:39PM 19.4363 -99.0721 210° Southwest  Level Estimated
08:40PM 19.4363 -99.0721 210° Southwest  Level Estimated
08:41PM 19.4363 -99.0721 210° Southwest  Level Estimated
08:42PM 19.4363 -99.0721 210° Southwest  Level Estimated
08:43PM 19.4363 -99.0721 210° Southwest  Level Estimated
08:44PM 19.4363 -99.0721 210° Southwest  Level Estimated
08:45PM 19.4363 -99.0721 210° Southwest  Level Estimated